sensor_id;sensor_type;location;lat;lon;timestamp;temperature;humidity
652;DHT22;310;48.490;9.200;2022-12-07T00:01:13;9.50;38.90
652;DHT22;310;48.490;9.200;2022-12-07T00:03:40;9.60;38.10
652;DHT22;310;48.490;9.200;2022-12-07T00:06:08;9.60;38.30
652;DHT22;310;48.490;9.200;2022-12-07T00:08:35;9.50;38.40
652;DHT22;310;48.490;9.200;2022-12-07T00:11:05;9.70;38.10
652;DHT22;310;48.490;9.200;2022-12-07T00:13:32;9.70;37.70
652;DHT22;310;48.490;9.200;2022-12-07T00:16:03;9.30;38.60
652;DHT22;310;48.490;9.200;2022-12-07T00:18:29;9.50;37.90
652;DHT22;310;48.490;9.200;2022-12-07T00:21:26;8.90;39.70
652;DHT22;310;48.490;9.200;2022-12-07T00:23:53;9.10;39.10
652;DHT22;310;48.490;9.200;2022-12-07T00:26:21;8.90;39.80
652;DHT22;310;48.490;9.200;2022-12-07T00:28:48;8.30;41.30
652;DHT22;310;48.490;9.200;2022-12-07T00:31:16;8.00;43.40
652;DHT22;310;48.490;9.200;2022-12-07T00:33:43;8.10;42.60
652;DHT22;310;48.490;9.200;2022-12-07T00:36:12;8.00;42.80
652;DHT22;310;48.490;9.200;2022-12-07T00:38:38;8.20;42.70
652;DHT22;310;48.490;9.200;2022-12-07T00:41:11;8.50;42.00
652;DHT22;310;48.490;9.200;2022-12-07T00:43:37;8.90;40.30
652;DHT22;310;48.490;9.200;2022-12-07T00:46:03;9.10;39.60
652;DHT22;310;48.490;9.200;2022-12-07T00:48:29;9.20;39.30
652;DHT22;310;48.490;9.200;2022-12-07T00:50:55;9.40;38.60
652;DHT22;310;48.490;9.200;2022-12-07T00:53:20;8.90;39.10
652;DHT22;310;48.490;9.200;2022-12-07T00:55:46;8.30;41.40
652;DHT22;310;48.490;9.200;2022-12-07T00:58:12;8.10;42.10
652;DHT22;310;48.490;9.200;2022-12-07T01:00:39;8.40;41.90
652;DHT22;310;48.490;9.200;2022-12-07T01:03:06;8.00;41.90
652;DHT22;310;48.490;9.200;2022-12-07T01:05:31;7.50;45.40
652;DHT22;310;48.490;9.200;2022-12-07T01:07:57;7.60;44.70
652;DHT22;310;48.490;9.200;2022-12-07T01:10:23;7.60;44.90
652;DHT22;310;48.490;9.200;2022-12-07T01:12:49;7.70;44.20
652;DHT22;310;48.490;9.200;2022-12-07T01:15:15;7.60;46.10
652;DHT22;310;48.490;9.200;2022-12-07T01:17:40;7.60;45.40
652;DHT22;310;48.490;9.200;2022-12-07T01:20:06;7.40;46.10
652;DHT22;310;48.490;9.200;2022-12-07T01:22:39;7.50;45.40
652;DHT22;310;48.490;9.200;2022-12-07T01:25:07;7.60;45.50
652;DHT22;310;48.490;9.200;2022-12-07T01:27:34;7.50;45.80
652;DHT22;310;48.490;9.200;2022-12-07T01:30:00;7.80;44.80
652;DHT22;310;48.490;9.200;2022-12-07T01:32:26;8.00;43.70
652;DHT22;310;48.490;9.200;2022-12-07T01:34:52;8.20;44.30
652;DHT22;310;48.490;9.200;2022-12-07T01:37:18;8.30;43.30
652;DHT22;310;48.490;9.200;2022-12-07T01:39:43;8.50;42.50
652;DHT22;310;48.490;9.200;2022-12-07T01:42:12;8.20;43.00
652;DHT22;310;48.490;9.200;2022-12-07T01:47:42;8.20;42.70
652;DHT22;310;48.490;9.200;2022-12-07T01:50:09;8.20;43.40
652;DHT22;310;48.490;9.200;2022-12-07T01:52:35;8.50;42.40
652;DHT22;310;48.490;9.200;2022-12-07T01:55:04;8.40;41.90
652;DHT22;310;48.490;9.200;2022-12-07T01:57:33;8.10;43.10
652;DHT22;310;48.490;9.200;2022-12-07T02:00:00;8.50;43.70
652;DHT22;310;48.490;9.200;2022-12-07T02:02:29;8.10;42.90
652;DHT22;310;48.490;9.200;2022-12-07T02:04:59;7.80;45.70
652;DHT22;310;48.490;9.200;2022-12-07T02:07:25;7.80;44.10
652;DHT22;310;48.490;9.200;2022-12-07T02:09:52;7.70;44.80
652;DHT22;310;48.490;9.200;2022-12-07T02:12:18;8.20;43.50
652;DHT22;310;48.490;9.200;2022-12-07T02:14:44;8.50;42.50
652;DHT22;310;48.490;9.200;2022-12-07T02:17:25;8.20;42.80
652;DHT22;310;48.490;9.200;2022-12-07T02:20:08;8.10;43.50
652;DHT22;310;48.490;9.200;2022-12-07T02:22:45;7.90;44.20
652;DHT22;310;48.490;9.200;2022-12-07T02:30:18;8.40;42.80
652;DHT22;310;48.490;9.200;2022-12-07T02:33:06;8.40;42.90
652;DHT22;310;48.490;9.200;2022-12-07T02:35:48;8.50;42.30
652;DHT22;310;48.490;9.200;2022-12-07T02:38:26;8.30;42.80
652;DHT22;310;48.490;9.200;2022-12-07T02:41:12;8.30;43.00
652;DHT22;310;48.490;9.200;2022-12-07T02:43:42;8.20;44.20
652;DHT22;310;48.490;9.200;2022-12-07T02:46:14;8.40;43.60
652;DHT22;310;48.490;9.200;2022-12-07T02:48:41;8.00;43.50
652;DHT22;310;48.490;9.200;2022-12-07T02:51:08;7.70;45.10
652;DHT22;310;48.490;9.200;2022-12-07T02:53:37;7.80;44.70
652;DHT22;310;48.490;9.200;2022-12-07T02:56:39;7.40;46.10
652;DHT22;310;48.490;9.200;2022-12-07T02:59:57;7.50;46.50
652;DHT22;310;48.490;9.200;2022-12-07T03:16:35;7.50;47.40
652;DHT22;310;48.490;9.200;2022-12-07T03:19:21;8.00;45.20
652;DHT22;310;48.490;9.200;2022-12-07T03:21:57;7.60;46.40
652;DHT22;310;48.490;9.200;2022-12-07T03:24:29;7.60;46.60
652;DHT22;310;48.490;9.200;2022-12-07T03:27:21;7.80;46.40
652;DHT22;310;48.490;9.200;2022-12-07T03:30:08;7.70;46.20
652;DHT22;310;48.490;9.200;2022-12-07T03:32:39;7.90;44.80
652;DHT22;310;48.490;9.200;2022-12-07T03:38:51;7.40;46.20
652;DHT22;310;48.490;9.200;2022-12-07T03:41:13;6.70;48.10
652;DHT22;310;48.490;9.200;2022-12-07T03:43:40;6.70;48.20
652;DHT22;310;48.490;9.200;2022-12-07T03:51:40;7.60;42.30
652;DHT22;310;48.490;9.200;2022-12-07T03:54:21;7.50;41.00
652;DHT22;310;48.490;9.200;2022-12-07T03:56:50;7.90;40.10
652;DHT22;310;48.490;9.200;2022-12-07T03:59:17;8.40;39.10
652;DHT22;310;48.490;9.200;2022-12-07T04:01:44;8.50;39.10
652;DHT22;310;48.490;9.200;2022-12-07T04:04:10;8.50;37.50
652;DHT22;310;48.490;9.200;2022-12-07T04:06:36;8.70;37.80
652;DHT22;310;48.490;9.200;2022-12-07T04:09:02;8.50;38.70
652;DHT22;310;48.490;9.200;2022-12-07T04:11:28;8.50;39.40
652;DHT22;310;48.490;9.200;2022-12-07T04:13:53;8.40;40.10
652;DHT22;310;48.490;9.200;2022-12-07T04:16:37;8.80;38.60
652;DHT22;310;48.490;9.200;2022-12-07T04:19:03;8.80;38.80
652;DHT22;310;48.490;9.200;2022-12-07T04:21:29;9.20;38.00
652;DHT22;310;48.490;9.200;2022-12-07T04:23:54;9.20;37.80
652;DHT22;310;48.490;9.200;2022-12-07T04:26:20;9.20;38.00
652;DHT22;310;48.490;9.200;2022-12-07T04:28:45;9.10;38.00
652;DHT22;310;48.490;9.200;2022-12-07T04:31:11;9.10;37.90
652;DHT22;310;48.490;9.200;2022-12-07T04:33:37;9.20;38.10
652;DHT22;310;48.490;9.200;2022-12-07T04:36:02;9.20;38.70
652;DHT22;310;48.490;9.200;2022-12-07T04:38:28;8.80;38.70
652;DHT22;310;48.490;9.200;2022-12-07T04:40:54;8.70;38.60
652;DHT22;310;48.490;9.200;2022-12-07T04:43:19;8.70;38.50
652;DHT22;310;48.490;9.200;2022-12-07T04:45:46;8.70;38.60
652;DHT22;310;48.490;9.200;2022-12-07T04:48:12;8.80;38.00
652;DHT22;310;48.490;9.200;2022-12-07T04:50:38;8.90;38.20
652;DHT22;310;48.490;9.200;2022-12-07T04:53:04;8.70;39.10
652;DHT22;310;48.490;9.200;2022-12-07T04:55:29;8.50;39.80
652;DHT22;310;48.490;9.200;2022-12-07T04:57:55;8.30;40.40
652;DHT22;310;48.490;9.200;2022-12-07T05:00:20;8.70;40.90
652;DHT22;310;48.490;9.200;2022-12-07T05:02:46;8.50;40.10
652;DHT22;310;48.490;9.200;2022-12-07T05:05:11;8.70;39.30
652;DHT22;310;48.490;9.200;2022-12-07T05:07:37;8.70;39.30
652;DHT22;310;48.490;9.200;2022-12-07T05:10:03;8.90;39.60
652;DHT22;310;48.490;9.200;2022-12-07T05:12:28;8.40;39.40
652;DHT22;310;48.490;9.200;2022-12-07T05:14:54;8.50;40.10
652;DHT22;310;48.490;9.200;2022-12-07T05:17:20;8.70;38.90
652;DHT22;310;48.490;9.200;2022-12-07T05:19:45;8.70;38.70
652;DHT22;310;48.490;9.200;2022-12-07T05:22:11;8.80;38.30
652;DHT22;310;48.490;9.200;2022-12-07T05:24:36;9.00;38.20
652;DHT22;310;48.490;9.200;2022-12-07T05:27:02;8.60;38.90
652;DHT22;310;48.490;9.200;2022-12-07T05:29:27;8.20;39.90
652;DHT22;310;48.490;9.200;2022-12-07T05:31:53;8.10;40.60
652;DHT22;310;48.490;9.200;2022-12-07T05:34:19;8.40;40.90
652;DHT22;310;48.490;9.200;2022-12-07T05:36:44;8.40;40.40
652;DHT22;310;48.490;9.200;2022-12-07T05:39:10;8.60;40.40
652;DHT22;310;48.490;9.200;2022-12-07T05:41:35;8.40;39.20
652;DHT22;310;48.490;9.200;2022-12-07T05:44:20;8.30;39.50
652;DHT22;310;48.490;9.200;2022-12-07T05:46:45;8.70;39.40
652;DHT22;310;48.490;9.200;2022-12-07T05:49:11;8.40;38.60
652;DHT22;310;48.490;9.200;2022-12-07T05:51:37;8.50;38.10
652;DHT22;310;48.490;9.200;2022-12-07T05:54:02;8.30;38.40
652;DHT22;310;48.490;9.200;2022-12-07T05:56:28;8.20;38.40
652;DHT22;310;48.490;9.200;2022-12-07T05:58:54;7.90;39.20
652;DHT22;310;48.490;9.200;2022-12-07T06:01:38;7.90;38.70
652;DHT22;310;48.490;9.200;2022-12-07T06:04:03;7.90;38.40
652;DHT22;310;48.490;9.200;2022-12-07T06:06:29;8.00;38.40
652;DHT22;310;48.490;9.200;2022-12-07T06:08:54;7.90;38.40
652;DHT22;310;48.490;9.200;2022-12-07T06:11:20;7.80;38.70
652;DHT22;310;48.490;9.200;2022-12-07T06:14:04;7.70;38.90
652;DHT22;310;48.490;9.200;2022-12-07T06:16:30;7.40;39.80
652;DHT22;310;48.490;9.200;2022-12-07T06:18:55;7.10;40.80
652;DHT22;310;48.490;9.200;2022-12-07T06:21:21;7.10;40.60
652;DHT22;310;48.490;9.200;2022-12-07T06:23:47;7.10;40.60
652;DHT22;310;48.490;9.200;2022-12-07T06:26:13;6.70;41.30
652;DHT22;310;48.490;9.200;2022-12-07T06:28:39;6.10;43.20
652;DHT22;310;48.490;9.200;2022-12-07T06:31:06;6.20;43.90
652;DHT22;310;48.490;9.200;2022-12-07T06:33:32;6.10;43.40
652;DHT22;310;48.490;9.200;2022-12-07T06:35:58;6.20;43.00
652;DHT22;310;48.490;9.200;2022-12-07T06:38:23;6.30;42.40
652;DHT22;310;48.490;9.200;2022-12-07T06:40:50;6.50;41.60
652;DHT22;310;48.490;9.200;2022-12-07T06:43:15;6.70;41.00
652;DHT22;310;48.490;9.200;2022-12-07T06:45:41;6.80;39.10
652;DHT22;310;48.490;9.200;2022-12-07T06:48:07;7.10;38.40
652;DHT22;310;48.490;9.200;2022-12-07T06:50:33;7.10;38.20
652;DHT22;310;48.490;9.200;2022-12-07T06:52:58;6.80;39.10
652;DHT22;310;48.490;9.200;2022-12-07T06:55:24;7.10;38.40
652;DHT22;310;48.490;9.200;2022-12-07T06:57:49;7.10;38.10
652;DHT22;310;48.490;9.200;2022-12-07T07:00:15;6.90;39.10
652;DHT22;310;48.490;9.200;2022-12-07T07:02:41;6.80;39.90
652;DHT22;310;48.490;9.200;2022-12-07T07:05:07;7.10;38.40
652;DHT22;310;48.490;9.200;2022-12-07T07:07:32;7.20;36.40
652;DHT22;310;48.490;9.200;2022-12-07T07:09:58;7.40;35.80
652;DHT22;310;48.490;9.200;2022-12-07T07:12:24;7.50;35.10
652;DHT22;310;48.490;9.200;2022-12-07T07:14:49;7.40;35.50
652;DHT22;310;48.490;9.200;2022-12-07T07:17:15;7.10;37.20
652;DHT22;310;48.490;9.200;2022-12-07T07:19:40;7.00;38.50
652;DHT22;310;48.490;9.200;2022-12-07T07:22:06;7.20;38.10
652;DHT22;310;48.490;9.200;2022-12-07T07:24:32;7.30;37.80
652;DHT22;310;48.490;9.200;2022-12-07T07:26:57;7.20;38.90
652;DHT22;310;48.490;9.200;2022-12-07T07:29:23;7.00;38.90
652;DHT22;310;48.490;9.200;2022-12-07T07:31:48;6.70;39.70
652;DHT22;310;48.490;9.200;2022-12-07T07:34:14;6.70;40.70
652;DHT22;310;48.490;9.200;2022-12-07T07:36:40;6.20;41.50
652;DHT22;310;48.490;9.200;2022-12-07T07:39:06;6.40;42.40
652;DHT22;310;48.490;9.200;2022-12-07T07:41:32;6.80;41.90
652;DHT22;310;48.490;9.200;2022-12-07T07:43:58;7.30;40.10
652;DHT22;310;48.490;9.200;2022-12-07T07:46:23;7.50;39.60
652;DHT22;310;48.490;9.200;2022-12-07T07:48:49;7.60;39.10
652;DHT22;310;48.490;9.200;2022-12-07T07:51:14;8.00;38.50
652;DHT22;310;48.490;9.200;2022-12-07T07:53:40;7.50;38.70
652;DHT22;310;48.490;9.200;2022-12-07T07:56:05;7.60;39.10
652;DHT22;310;48.490;9.200;2022-12-07T07:58:31;7.60;39.40
652;DHT22;310;48.490;9.200;2022-12-07T08:00:57;7.30;39.60
652;DHT22;310;48.490;9.200;2022-12-07T08:03:22;7.10;40.20
652;DHT22;310;48.490;9.200;2022-12-07T08:05:48;7.10;40.20
652;DHT22;310;48.490;9.200;2022-12-07T08:08:13;7.10;39.80
652;DHT22;310;48.490;9.200;2022-12-07T08:10:39;6.80;40.60
652;DHT22;310;48.490;9.200;2022-12-07T08:13:05;7.00;40.30
652;DHT22;310;48.490;9.200;2022-12-07T08:15:38;6.90;40.00
652;DHT22;310;48.490;9.200;2022-12-07T08:18:04;6.90;40.50
652;DHT22;310;48.490;9.200;2022-12-07T08:20:30;6.90;40.80
652;DHT22;310;48.490;9.200;2022-12-07T08:22:57;7.30;40.30
652;DHT22;310;48.490;9.200;2022-12-07T08:25:22;7.60;39.50
652;DHT22;310;48.490;9.200;2022-12-07T08:27:49;7.60;39.30
652;DHT22;310;48.490;9.200;2022-12-07T08:30:15;8.30;39.10
652;DHT22;310;48.490;9.200;2022-12-07T08:32:40;7.90;38.80
652;DHT22;310;48.490;9.200;2022-12-07T08:35:07;7.70;39.80
652;DHT22;310;48.490;9.200;2022-12-07T08:37:33;7.50;39.00
652;DHT22;310;48.490;9.200;2022-12-07T08:39:58;7.80;39.00
652;DHT22;310;48.490;9.200;2022-12-07T08:42:24;7.40;39.00
652;DHT22;310;48.490;9.200;2022-12-07T08:44:55;7.90;39.70
652;DHT22;310;48.490;9.200;2022-12-07T08:47:21;8.00;38.60
652;DHT22;310;48.490;9.200;2022-12-07T08:49:48;8.30;38.60
652;DHT22;310;48.490;9.200;2022-12-07T08:52:15;7.60;39.10
652;DHT22;310;48.490;9.200;2022-12-07T08:54:41;7.50;40.00
652;DHT22;310;48.490;9.200;2022-12-07T08:57:08;7.90;40.50
652;DHT22;310;48.490;9.200;2022-12-07T08:59:35;7.90;39.60
652;DHT22;310;48.490;9.200;2022-12-07T09:02:02;8.10;39.30
652;DHT22;310;48.490;9.200;2022-12-07T09:04:27;8.30;38.20
652;DHT22;310;48.490;9.200;2022-12-07T09:06:54;8.60;37.30
652;DHT22;310;48.490;9.200;2022-12-07T09:09:20;8.90;35.70
652;DHT22;310;48.490;9.200;2022-12-07T09:11:46;8.90;35.30
652;DHT22;310;48.490;9.200;2022-12-07T09:14:12;8.90;35.40
652;DHT22;310;48.490;9.200;2022-12-07T09:16:38;9.20;35.00
652;DHT22;310;48.490;9.200;2022-12-07T09:19:04;9.20;34.80
652;DHT22;310;48.490;9.200;2022-12-07T09:21:30;9.30;33.40
652;DHT22;310;48.490;9.200;2022-12-07T09:23:55;9.20;34.00
652;DHT22;310;48.490;9.200;2022-12-07T09:26:21;9.30;34.20
652;DHT22;310;48.490;9.200;2022-12-07T09:28:47;8.90;34.90
652;DHT22;310;48.490;9.200;2022-12-07T09:31:12;8.70;36.00
652;DHT22;310;48.490;9.200;2022-12-07T09:33:38;8.50;36.40
652;DHT22;310;48.490;9.200;2022-12-07T09:36:04;8.30;36.70
652;DHT22;310;48.490;9.200;2022-12-07T09:38:30;8.30;37.40
652;DHT22;310;48.490;9.200;2022-12-07T09:40:56;8.70;38.40
652;DHT22;310;48.490;9.200;2022-12-07T09:43:24;8.40;39.20
652;DHT22;310;48.490;9.200;2022-12-07T09:45:52;8.60;37.10
652;DHT22;310;48.490;9.200;2022-12-07T09:48:39;8.60;36.60
652;DHT22;310;48.490;9.200;2022-12-07T09:51:18;8.20;37.30
652;DHT22;310;48.490;9.200;2022-12-07T09:53:44;7.30;39.80
652;DHT22;310;48.490;9.200;2022-12-07T09:56:15;8.20;39.20
652;DHT22;310;48.490;9.200;2022-12-07T09:58:42;8.50;38.00
652;DHT22;310;48.490;9.200;2022-12-07T10:03:36;8.20;37.90
652;DHT22;310;48.490;9.200;2022-12-07T10:06:04;8.40;37.10
652;DHT22;310;48.490;9.200;2022-12-07T10:08:31;7.40;38.60
652;DHT22;310;48.490;9.200;2022-12-07T10:10:57;7.60;38.70
652;DHT22;310;48.490;9.200;2022-12-07T10:13:36;7.70;38.30
652;DHT22;310;48.490;9.200;2022-12-07T10:16:02;7.60;38.60
652;DHT22;310;48.490;9.200;2022-12-07T10:21:17;8.10;37.50
652;DHT22;310;48.490;9.200;2022-12-07T10:24:32;8.80;35.00
652;DHT22;310;48.490;9.200;2022-12-07T10:26:52;8.60;35.00
652;DHT22;310;48.490;9.200;2022-12-07T10:29:51;8.20;37.20
652;DHT22;310;48.490;9.200;2022-12-07T10:34:42;8.70;34.20
652;DHT22;310;48.490;9.200;2022-12-07T10:39:46;8.80;32.30
652;DHT22;310;48.490;9.200;2022-12-07T10:42:24;8.60;32.10
652;DHT22;310;48.490;9.200;2022-12-07T10:45:15;8.60;33.30
652;DHT22;310;48.490;9.200;2022-12-07T10:53:14;8.30;33.60
652;DHT22;310;48.490;9.200;2022-12-07T10:56:16;9.10;33.00
652;DHT22;310;48.490;9.200;2022-12-07T11:01:31;9.50;31.40
652;DHT22;310;48.490;9.200;2022-12-07T11:04:33;9.70;30.30
652;DHT22;310;48.490;9.200;2022-12-07T11:10:13;7.40;35.40
652;DHT22;310;48.490;9.200;2022-12-07T11:15:41;7.50;35.50
652;DHT22;310;48.490;9.200;2022-12-07T11:18:11;7.90;35.60
652;DHT22;310;48.490;9.200;2022-12-07T11:26:34;9.00;32.50
652;DHT22;310;48.490;9.200;2022-12-07T11:37:33;8.20;33.50
652;DHT22;310;48.490;9.200;2022-12-07T11:40:03;8.60;32.50
652;DHT22;310;48.490;9.200;2022-12-07T11:42:44;8.70;33.10
652;DHT22;310;48.490;9.200;2022-12-07T11:45:20;8.70;33.20
652;DHT22;310;48.490;9.200;2022-12-07T11:50:37;8.10;34.10
652;DHT22;310;48.490;9.200;2022-12-07T11:53:12;8.20;34.50
652;DHT22;310;48.490;9.200;2022-12-07T12:04:01;9.30;31.90
652;DHT22;310;48.490;9.200;2022-12-07T12:06:27;9.70;31.40
652;DHT22;310;48.490;9.200;2022-12-07T12:14:59;8.80;32.30
652;DHT22;310;48.490;9.200;2022-12-07T12:26:02;9.90;31.10
652;DHT22;310;48.490;9.200;2022-12-07T12:28:38;10.60;29.00
652;DHT22;310;48.490;9.200;2022-12-07T12:33:35;10.00;29.40
652;DHT22;310;48.490;9.200;2022-12-07T12:51:49;9.00;32.50
652;DHT22;310;48.490;9.200;2022-12-07T13:24:08;9.20;32.60
652;DHT22;310;48.490;9.200;2022-12-07T13:29:05;8.90;32.70
652;DHT22;310;48.490;9.200;2022-12-07T13:31:35;9.50;32.10
652;DHT22;310;48.490;9.200;2022-12-07T13:34:03;9.60;31.60
652;DHT22;310;48.490;9.200;2022-12-07T13:41:42;9.20;33.10
652;DHT22;310;48.490;9.200;2022-12-07T13:44:17;10.00;30.80
652;DHT22;310;48.490;9.200;2022-12-07T13:49:22;10.00;30.30
652;DHT22;310;48.490;9.200;2022-12-07T13:51:48;9.40;32.80
652;DHT22;310;48.490;9.200;2022-12-07T13:54:15;9.20;32.90
652;DHT22;310;48.490;9.200;2022-12-07T13:56:40;9.20;33.30
652;DHT22;310;48.490;9.200;2022-12-07T13:59:18;9.70;33.10
652;DHT22;310;48.490;9.200;2022-12-07T14:01:46;10.30;30.40
652;DHT22;310;48.490;9.200;2022-12-07T14:04:37;10.40;30.10
652;DHT22;310;48.490;9.200;2022-12-07T14:07:26;10.60;29.60
652;DHT22;310;48.490;9.200;2022-12-07T14:10:00;10.90;29.90
652;DHT22;310;48.490;9.200;2022-12-07T14:12:28;10.30;29.90
652;DHT22;310;48.490;9.200;2022-12-07T14:14:55;10.50;29.20
652;DHT22;310;48.490;9.200;2022-12-07T14:17:25;10.70;29.40
652;DHT22;310;48.490;9.200;2022-12-07T14:19:59;10.40;29.40
652;DHT22;310;48.490;9.200;2022-12-07T14:22:34;9.90;31.10
652;DHT22;310;48.490;9.200;2022-12-07T14:25:21;8.70;34.10
652;DHT22;310;48.490;9.200;2022-12-07T14:28:01;9.20;34.30
652;DHT22;310;48.490;9.200;2022-12-07T14:30:31;9.60;33.00
652;DHT22;310;48.490;9.200;2022-12-07T14:33:02;9.60;33.00
652;DHT22;310;48.490;9.200;2022-12-07T14:35:29;9.50;34.20
652;DHT22;310;48.490;9.200;2022-12-07T14:37:55;9.80;33.20
652;DHT22;310;48.490;9.200;2022-12-07T14:40:24;9.90;32.30
652;DHT22;310;48.490;9.200;2022-12-07T14:43:05;9.10;34.10
652;DHT22;310;48.490;9.200;2022-12-07T14:45:32;9.40;34.80
652;DHT22;310;48.490;9.200;2022-12-07T14:47:58;9.30;34.60
652;DHT22;310;48.490;9.200;2022-12-07T14:50:23;8.50;35.50
652;DHT22;310;48.490;9.200;2022-12-07T14:52:56;8.30;36.70
652;DHT22;310;48.490;9.200;2022-12-07T14:55:27;8.90;35.70
652;DHT22;310;48.490;9.200;2022-12-07T14:57:53;9.20;34.40
652;DHT22;310;48.490;9.200;2022-12-07T15:00:20;9.20;34.30
652;DHT22;310;48.490;9.200;2022-12-07T15:02:47;9.60;33.00
652;DHT22;310;48.490;9.200;2022-12-07T15:05:13;9.30;34.00
652;DHT22;310;48.490;9.200;2022-12-07T15:07:39;9.30;34.30
652;DHT22;310;48.490;9.200;2022-12-07T15:10:06;9.60;33.40
652;DHT22;310;48.490;9.200;2022-12-07T15:12:32;9.90;33.30
652;DHT22;310;48.490;9.200;2022-12-07T15:14:58;9.70;33.10
652;DHT22;310;48.490;9.200;2022-12-07T15:17:23;9.10;34.60
652;DHT22;310;48.490;9.200;2022-12-07T15:19:49;9.50;34.00
652;DHT22;310;48.490;9.200;2022-12-07T15:22:14;9.40;34.20
652;DHT22;310;48.490;9.200;2022-12-07T15:24:40;9.30;34.60
652;DHT22;310;48.490;9.200;2022-12-07T15:27:05;9.30;34.70
652;DHT22;310;48.490;9.200;2022-12-07T15:29:31;9.10;35.00
652;DHT22;310;48.490;9.200;2022-12-07T15:31:57;9.10;35.30
652;DHT22;310;48.490;9.200;2022-12-07T15:34:26;9.30;35.20
652;DHT22;310;48.490;9.200;2022-12-07T15:36:54;9.50;34.70
652;DHT22;310;48.490;9.200;2022-12-07T15:39:19;9.30;35.20
652;DHT22;310;48.490;9.200;2022-12-07T15:41:45;9.60;34.50
652;DHT22;310;48.490;9.200;2022-12-07T15:44:14;9.40;34.80
652;DHT22;310;48.490;9.200;2022-12-07T15:46:59;9.80;34.30
652;DHT22;310;48.490;9.200;2022-12-07T15:49:25;9.50;33.70
652;DHT22;310;48.490;9.200;2022-12-07T15:51:51;9.50;34.60
652;DHT22;310;48.490;9.200;2022-12-07T15:54:21;9.10;35.20
652;DHT22;310;48.490;9.200;2022-12-07T15:56:46;9.50;35.60
652;DHT22;310;48.490;9.200;2022-12-07T15:59:12;8.90;35.40
652;DHT22;310;48.490;9.200;2022-12-07T16:01:38;8.50;36.60
652;DHT22;310;48.490;9.200;2022-12-07T16:04:04;8.90;36.30
652;DHT22;310;48.490;9.200;2022-12-07T16:06:29;9.10;35.90
652;DHT22;310;48.490;9.200;2022-12-07T16:08:55;8.90;35.90
652;DHT22;310;48.490;9.200;2022-12-07T16:11:21;9.30;36.00
652;DHT22;310;48.490;9.200;2022-12-07T16:13:46;9.00;37.00
652;DHT22;310;48.490;9.200;2022-12-07T16:16:14;9.30;37.10
652;DHT22;310;48.490;9.200;2022-12-07T16:18:42;9.30;35.60
652;DHT22;310;48.490;9.200;2022-12-07T16:21:07;9.20;36.40
652;DHT22;310;48.490;9.200;2022-12-07T16:23:33;9.00;36.60
652;DHT22;310;48.490;9.200;2022-12-07T16:26:07;8.90;36.30
652;DHT22;310;48.490;9.200;2022-12-07T16:28:33;9.00;36.40
652;DHT22;310;48.490;9.200;2022-12-07T16:31:03;9.10;36.10
652;DHT22;310;48.490;9.200;2022-12-07T16:33:29;9.10;36.00
652;DHT22;310;48.490;9.200;2022-12-07T16:35:55;9.00;36.30
652;DHT22;310;48.490;9.200;2022-12-07T16:38:20;8.90;36.60
652;DHT22;310;48.490;9.200;2022-12-07T16:40:47;8.70;37.00
652;DHT22;310;48.490;9.200;2022-12-07T16:43:13;8.90;36.50
652;DHT22;310;48.490;9.200;2022-12-07T16:45:39;8.80;37.30
652;DHT22;310;48.490;9.200;2022-12-07T16:48:04;9.20;36.70
652;DHT22;310;48.490;9.200;2022-12-07T16:50:30;9.40;36.50
652;DHT22;310;48.490;9.200;2022-12-07T16:52:56;9.50;35.10
652;DHT22;310;48.490;9.200;2022-12-07T16:55:21;9.40;35.10
652;DHT22;310;48.490;9.200;2022-12-07T16:57:47;9.40;35.00
652;DHT22;310;48.490;9.200;2022-12-07T17:00:13;9.50;35.30
652;DHT22;310;48.490;9.200;2022-12-07T17:02:38;9.60;34.60
652;DHT22;310;48.490;9.200;2022-12-07T17:05:04;9.50;35.20
652;DHT22;310;48.490;9.200;2022-12-07T17:07:29;9.60;34.80
652;DHT22;310;48.490;9.200;2022-12-07T17:09:55;9.60;35.10
652;DHT22;310;48.490;9.200;2022-12-07T17:12:21;9.80;34.60
652;DHT22;310;48.490;9.200;2022-12-07T17:14:46;9.60;34.90
652;DHT22;310;48.490;9.200;2022-12-07T17:17:30;10.00;33.80
652;DHT22;310;48.490;9.200;2022-12-07T17:19:56;9.30;35.20
652;DHT22;310;48.490;9.200;2022-12-07T17:22:22;9.00;35.90
652;DHT22;310;48.490;9.200;2022-12-07T17:24:47;9.00;36.40
652;DHT22;310;48.490;9.200;2022-12-07T17:27:13;8.50;37.00
652;DHT22;310;48.490;9.200;2022-12-07T17:29:38;8.40;37.60
652;DHT22;310;48.490;9.200;2022-12-07T17:32:04;8.30;37.70
652;DHT22;310;48.490;9.200;2022-12-07T17:34:30;8.50;37.60
652;DHT22;310;48.490;9.200;2022-12-07T17:36:56;8.60;36.60
652;DHT22;310;48.490;9.200;2022-12-07T17:39:21;8.30;37.20
652;DHT22;310;48.490;9.200;2022-12-07T17:41:47;8.20;38.10
652;DHT22;310;48.490;9.200;2022-12-07T17:44:32;8.50;38.30
652;DHT22;310;48.490;9.200;2022-12-07T17:46:57;8.20;37.90
652;DHT22;310;48.490;9.200;2022-12-07T17:49:25;8.00;38.80
652;DHT22;310;48.490;9.200;2022-12-07T17:51:51;7.80;39.60
652;DHT22;310;48.490;9.200;2022-12-07T17:54:35;7.50;40.30
652;DHT22;310;48.490;9.200;2022-12-07T17:57:00;7.00;42.20
652;DHT22;310;48.490;9.200;2022-12-07T17:59:26;7.10;42.60
652;DHT22;310;48.490;9.200;2022-12-07T18:01:52;7.70;41.10
652;DHT22;310;48.490;9.200;2022-12-07T18:04:17;7.40;42.00
652;DHT22;310;48.490;9.200;2022-12-07T18:06:43;7.80;40.00
652;DHT22;310;48.490;9.200;2022-12-07T18:09:09;8.00;40.20
652;DHT22;310;48.490;9.200;2022-12-07T18:11:35;8.40;38.60
652;DHT22;310;48.490;9.200;2022-12-07T18:14:02;8.80;37.90
652;DHT22;310;48.490;9.200;2022-12-07T18:16:29;8.80;37.30
652;DHT22;310;48.490;9.200;2022-12-07T18:19:02;8.50;37.40
652;DHT22;310;48.490;9.200;2022-12-07T18:21:29;8.50;38.10
652;DHT22;310;48.490;9.200;2022-12-07T18:23:57;8.60;37.80
652;DHT22;310;48.490;9.200;2022-12-07T18:26:24;8.80;37.20
652;DHT22;310;48.490;9.200;2022-12-07T18:28:50;8.90;37.30
652;DHT22;310;48.490;9.200;2022-12-07T18:31:17;8.90;36.90
652;DHT22;310;48.490;9.200;2022-12-07T18:33:43;8.10;38.00
652;DHT22;310;48.490;9.200;2022-12-07T18:36:10;7.80;39.10
652;DHT22;310;48.490;9.200;2022-12-07T18:38:36;7.90;39.30
652;DHT22;310;48.490;9.200;2022-12-07T18:41:02;7.80;39.70
652;DHT22;310;48.490;9.200;2022-12-07T18:43:28;7.50;40.60
652;DHT22;310;48.490;9.200;2022-12-07T18:45:54;7.80;40.70
652;DHT22;310;48.490;9.200;2022-12-07T18:48:20;8.60;38.50
652;DHT22;310;48.490;9.200;2022-12-07T18:50:57;9.60;36.90
652;DHT22;310;48.490;9.200;2022-12-07T18:53:24;9.40;35.80
652;DHT22;310;48.490;9.200;2022-12-07T18:55:50;9.30;36.50
652;DHT22;310;48.490;9.200;2022-12-07T18:58:16;9.30;36.20
652;DHT22;310;48.490;9.200;2022-12-07T19:00:41;9.30;36.00
652;DHT22;310;48.490;9.200;2022-12-07T19:03:07;9.30;36.30
652;DHT22;310;48.490;9.200;2022-12-07T19:05:32;9.50;35.80
652;DHT22;310;48.490;9.200;2022-12-07T19:07:58;9.50;35.10
652;DHT22;310;48.490;9.200;2022-12-07T19:10:25;9.40;34.90
652;DHT22;310;48.490;9.200;2022-12-07T19:12:51;9.30;35.60
652;DHT22;310;48.490;9.200;2022-12-07T19:15:16;9.30;35.20
652;DHT22;310;48.490;9.200;2022-12-07T19:17:42;9.20;34.40
652;DHT22;310;48.490;9.200;2022-12-07T19:20:10;8.90;36.10
652;DHT22;310;48.490;9.200;2022-12-07T19:22:36;9.00;35.30
652;DHT22;310;48.490;9.200;2022-12-07T19:25:02;9.10;35.30
652;DHT22;310;48.490;9.200;2022-12-07T19:27:29;9.00;35.20
652;DHT22;310;48.490;9.200;2022-12-07T19:29:57;9.30;34.90
652;DHT22;310;48.490;9.200;2022-12-07T19:32:23;9.00;34.70
652;DHT22;310;48.490;9.200;2022-12-07T19:34:49;9.20;35.00